KFPR

Treasure Coast International Airport

Fort Pierce, Florida, USA
KFPR 221125Z 2212/2312 09011KT P6SM SCT040 FM221500 10015G22KT P6SM SCT040 BKN060 FM230300 12011KT P6SM BKN060
Issued Valid From Valid To
Jan-22 @ 11:25 UTC
(5 hours ago)
Jan-22 @ 12:00 UTC
(5 hours ago)
Jan-23 @ 12:00 UTC
(in 19 hours)
Expired Click to View Jan-22 @ 12:00 to Jan-22 @ 15:00
KFPR 221125Z 2212/2312 09011KT P6SM SCT040
Wind Visibility Clouds
90° at 11 knots Greater than 6 miles
  • Scattered at 4,000' AGL
From Jan-22 @ 15:00 to Jan-23 @ 03:00
FM221500 10015G22KT P6SM SCT040 BKN060
Wind Visibility Clouds
100° at 15 knots
 Gusting to 22 knots
Greater than 6 miles
  • Scattered at 4,000' AGL
  • Broken at 6,000' AGL
From Jan-23 @ 03:00 to Jan-23 @ 12:00
FM230300 12011KT P6SM BKN060
Wind Visibility Clouds
120° at 11 knots Greater than 6 miles
  • Broken at 6,000' AGL
KFPR 221125Z 2212/2312 09011KT P6SM SCT040 FM221500 10015G22KT P6SM SCT040 BKN060 FM230300 12011KT P6SM BKN060
Issued Jan-22 @ 11:25 UTC
(5 hours ago)
Valid From Jan-22 @ 12:00 UTC
(5 hours ago)
Valid To Jan-23 @ 12:00 UTC
(in 19 hours)
Jan-22 @ 12:00 - Jan-22 @ 15:00
Wind Visibility
90° at 11 knots Greater than 6 miles
Clouds
  • Scattered at 4,000' AGL
From Jan-22 @ 15:00 - Jan-23 @ 03:00
Wind Visibility
100° at 15 knots
 Gusting to 22 knots
Greater than 6 miles
Clouds
  • Scattered at 4,000' AGL
  • Broken at 6,000' AGL
From Jan-23 @ 03:00 - Jan-23 @ 12:00
Wind Visibility
120° at 11 knots Greater than 6 miles
Clouds
  • Broken at 6,000' AGL